Time;durP1;ratioP1;P1;durP2;ratioP2;P2;SDS_P1;SDS_P2;PMS_P1;PMS_P2;Temp;Humidity;BMP_temperature;BMP_pressure;BME280_temperature;BME280_humidity;BME280_pressure;Samples;Min_cycle;Max_cycle;Signal;HPM_P1;HPM_P2
2023/08/14 00:00:31;;;;;;;9.30;6.65;;;16.10;99.90;;;;;;4994209;28;20049;-72
2023/08/14 00:02:57;;;;;;;10.13;6.53;;;;;;;;;;5024095;28;20090;-70
2023/08/14 00:05:23;;;;;;;8.82;6.07;;;;;;;;;;5008835;28;20056;-71
2023/08/14 00:07:48;;;;;;;11.10;6.07;;;15.70;99.90;;;;;;5024310;28;20045;-70
2023/08/14 00:10:14;;;;;;;8.48;6.28;;;;;;;;;;5024698;28;20048;-70
2023/08/14 00:12:41;;;;;;;8.27;5.57;;;;;;;;;;5025272;28;20041;-70
2023/08/14 00:15:07;;;;;;;8.90;6.45;;;;;;;;;;5021299;28;20042;-70
2023/08/14 00:17:33;;;;;;;9.57;5.95;;;15.80;99.90;;;;;;5029231;28;20041;-70
2023/08/14 00:19:59;;;;;;;10.80;6.38;;;15.70;99.90;;;;;;5023379;28;20044;-70
2023/08/14 00:22:25;;;;;;;7.70;5.70;;;;;;;;;;4994853;28;20056;-70
2023/08/14 00:24:51;;;;;;;9.70;6.03;;;;;;;;;;5025967;28;20052;-71
2023/08/14 00:27:17;;;;;;;8.73;6.05;;;;;;;;;;5019364;28;20050;-71
2023/08/14 00:29:42;;;;;;;8.05;5.78;;;15.60;99.90;;;;;;4996829;28;20034;-70
2023/08/14 00:32:08;;;;;;;11.25;5.80;;;15.60;99.90;;;;;;5004292;28;20056;-70
2023/08/14 00:34:34;;;;;;;12.32;6.10;;;;;;;;;;5025509;28;20038;-71
2023/08/14 00:36:59;;;;;;;10.45;5.90;;;15.70;99.90;;;;;;5011937;28;20057;-70
2023/08/14 00:39:25;;;;;;;9.15;5.70;;;;;;;;;;5016292;28;20403;-70
2023/08/14 00:41:51;;;;;;;9.32;5.70;;;;;;;;;;5032934;28;20052;-71
2023/08/14 00:44:17;;;;;;;8.13;5.93;;;;;;;;;;5027409;28;20927;-71
2023/08/14 00:46:43;;;;;;;6.50;4.45;;;;;;;;;;5015194;28;20049;-71
2023/08/14 00:49:10;;;;;;;11.82;4.40;;;;;;;;;;5023915;28;20048;-72
2023/08/14 00:51:36;;;;;;;9.27;5.65;;;;;;;;;;5024707;28;20049;-71
2023/08/14 00:54:02;;;;;;;9.63;5.70;;;;;;;;;;5018531;28;20042;-71
2023/08/14 00:56:29;;;;;;;6.25;4.85;;;;;;;;;;5012673;28;20053;-72
2023/08/14 00:58:55;;;;;;;9.77;5.95;;;15.40;99.90;;;;;;4986047;28;20120;-73
2023/08/14 01:01:22;;;;;;;8.85;5.80;;;;;;;;;;5017736;28;20412;-71
2023/08/14 01:03:48;;;;;;;8.18;5.82;;;;;;;;;;5023366;28;20053;-71
2023/08/14 01:06:14;;;;;;;7.72;5.85;;;;;;;;;;5005208;28;20057;-70
2023/08/14 01:08:39;;;;;;;9.77;5.00;;;15.50;99.90;;;;;;5007959;28;20041;-70
2023/08/14 01:11:12;;;;;;;7.20;5.28;;;15.40;99.90;;;;;;5008946;28;20045;-71
2023/08/14 01:13:56;;;;;;;6.43;4.13;;;15.30;99.90;;;;;;5011206;28;20542;-72
2023/08/14 01:16:27;;;;;;;6.68;4.35;;;15.30;99.90;;;;;;5023940;28;20084;-70
2023/08/14 01:18:55;;;;;;;6.10;4.90;;;15.40;99.90;;;;;;5023513;28;20121;-72
2023/08/14 01:21:21;;;;;;;7.60;5.10;;;;;;;;;;5024629;28;20774;-72
2023/08/14 01:24:11;;;;;;;7.28;4.15;;;15.20;99.90;;;;;;5008878;28;20322;-70
2023/08/14 01:26:37;;;;;;;7.60;4.95;;;;;;;;;;5001860;28;20041;-70
2023/08/14 01:29:03;;;;;;;7.32;4.80;;;;;;;;;;5028949;28;20029;-70
2023/08/14 01:31:28;;;;;;;5.63;4.10;;;15.00;99.90;;;;;;5031805;28;20063;-70
2023/08/14 01:33:54;;;;;;;9.30;4.57;;;14.90;99.90;;;;;;5023562;28;20104;-70
2023/08/14 01:36:38;;;;;;;8.07;5.25;;;15.10;99.90;;;;;;5026108;28;20037;-70
2023/08/14 01:39:08;;;;;;;8.60;6.57;;;15.30;99.90;;;;;;5024557;28;20084;-70
2023/08/14 01:41:48;;;;;;;10.55;6.35;;;15.40;99.90;;;;;;5028942;28;20392;-71
2023/08/14 01:44:17;;;;;;;10.55;7.28;;;15.60;99.90;;;;;;5018430;28;20111;-71
2023/08/14 01:46:46;;;;;;;9.82;7.32;;;15.60;99.90;;;;;;5031391;28;20038;-71
2023/08/14 01:49:14;;;;;;;11.75;6.78;;;15.30;99.90;;;;;;5001145;28;20129;-70
2023/08/14 01:51:41;;;;;;;7.13;5.95;;;15.40;99.90;;;;;;5010435;28;20038;-70
2023/08/14 01:54:07;;;;;;;10.02;6.95;;;15.50;99.90;;;;;;5028668;28;20041;-70
2023/08/14 01:56:33;;;;;;;8.52;6.82;;;;;;;;;;5013320;28;20056;-70
2023/08/14 01:58:58;;;;;;;10.00;7.15;;;;;;;;;;5015215;28;20051;-70
2023/08/14 02:01:24;;;;;;;12.45;8.32;;;;;;;;;;5026748;28;20593;-70
2023/08/14 02:03:50;;;;;;;10.38;7.68;;;15.60;99.90;;;;;;5023230;28;20085;-70
2023/08/14 02:06:16;;;;;;;11.40;9.05;;;;;;;;;;5020011;28;20061;-73
2023/08/14 02:08:42;;;;;;;10.32;7.63;;;;;;;;;;5008186;28;20057;-70
2023/08/14 02:11:08;;;;;;;11.82;8.02;;;;;;;;;;5028475;28;20076;-70
2023/08/14 02:13:35;;;;;;;10.65;7.03;;;;;;;;;;5011813;28;20168;-70
2023/08/14 02:16:01;;;;;;;10.73;7.32;;;15.40;99.90;;;;;;5015072;28;20487;-70
2023/08/14 02:18:27;;;;;;;13.63;7.63;;;;;;;;;;5018125;28;20559;-71
2023/08/14 02:20:53;;;;;;;9.05;6.97;;;;;;;;;;5001200;28;20042;-70
2023/08/14 02:23:19;;;;;;;8.77;7.70;;;15.20;99.90;;;;;;5020769;28;20059;-70
2023/08/14 02:25:45;;;;;;;11.13;7.38;;;;;;;;;;5008399;28;20484;-70
2023/08/14 02:28:12;;;;;;;10.52;7.82;;;15.30;99.90;;;;;;5038840;28;20033;-71
2023/08/14 02:30:41;;;;;;;10.93;7.18;;;15.20;99.90;;;;;;5001161;28;20072;-70
2023/08/14 02:33:07;;;;;;;11.35;7.25;;;15.20;99.90;;;;;;5033629;28;20033;-70
2023/08/14 02:35:34;;;;;;;7.97;6.72;;;15.20;99.90;;;;;;5026591;28;20116;-70
2023/08/14 02:38:01;;;;;;;13.23;7.72;;;14.90;99.90;;;;;;4990341;28;20045;-70
2023/08/14 02:40:26;;;;;;;12.23;7.57;;;15.10;99.90;;;;;;5020184;28;20033;-70
2023/08/14 02:42:52;;;;;;;14.68;7.13;;;;;;;;;;4997804;28;20042;-72
2023/08/14 02:45:18;;;;;;;11.52;8.10;;;;;;;;;;5009702;28;20053;-70
2023/08/14 02:47:44;;;;;;;10.82;6.45;;;;;;;;;;5011498;28;20897;-72
2023/08/14 02:50:10;;;;;;;10.75;6.93;;;;;;;;;;5007589;28;20040;-70
2023/08/14 02:52:35;;;;;;;9.35;6.65;;;14.80;99.90;;;;;;5022518;28;20073;-70
2023/08/14 02:55:01;;;;;;;9.77;7.22;;;14.80;99.90;;;;;;5025453;28;20029;-70
2023/08/14 02:57:27;;;;;;;10.23;7.68;;;14.80;99.90;;;;;;5022447;28;20527;-70
2023/08/14 02:59:53;;;;;;;13.32;7.40;;;;;;;;;;5029064;28;20053;-71
2023/08/14 03:02:18;;;;;;;9.77;7.53;;;14.80;99.90;;;;;;5011921;28;20056;-70
2023/08/14 03:04:44;;;;;;;10.15;8.50;;;;;;;;;;5010934;28;20068;-70
2023/08/14 03:07:10;;;;;;;14.18;8.80;;;;;;;;;;5027044;28;20050;-70
2023/08/14 03:09:36;;;;;;;16.27;10.43;;;;;;;;;;5016177;28;20037;-72
2023/08/14 03:12:02;;;;;;;15.35;9.70;;;15.00;99.90;;;;;;5005911;28;20045;-70
2023/08/14 03:14:28;;;;;;;16.17;9.73;;;;;;;;;;5013953;28;20438;-70
2023/08/14 03:16:54;;;;;;;13.30;9.80;;;;;;;;;;5008431;28;20393;-70
2023/08/14 03:19:20;;;;;;;13.00;9.18;;;;;;;;;;5015229;28;20491;-70
2023/08/14 03:21:46;;;;;;;14.70;9.80;;;;;;;;;;4995359;28;20058;-70
2023/08/14 03:24:11;;;;;;;20.52;10.05;;;;;;;;;;5004211;28;20053;-70
2023/08/14 03:26:37;;;;;;;17.50;9.57;;;14.90;99.90;;;;;;5015613;28;20755;-70
2023/08/14 03:29:03;;;;;;;17.25;11.73;;;;;;;;;;5019384;28;20033;-70
2023/08/14 03:31:31;;;;;;;15.07;10.20;;;;;;;;;;5015568;28;20073;-70
2023/08/14 03:33:57;;;;;;;18.75;10.05;;;14.80;99.90;;;;;;5005612;28;20049;-70
2023/08/14 03:36:23;;;;;;;12.80;10.13;;;14.90;99.90;;;;;;5024822;28;20728;-70
2023/08/14 03:38:49;;;;;;;16.48;10.23;;;;;;;;;;5005951;28;20124;-72
2023/08/14 03:41:15;;;;;;;14.35;10.57;;;;;;;;;;5008304;28;20071;-71
2023/08/14 03:43:40;;;;;;;14.93;10.80;;;;;;;;;;4994871;28;20805;-70
2023/08/14 03:46:06;;;;;;;14.18;9.93;;;14.90;99.90;;;;;;5015395;28;20041;-70
2023/08/14 03:48:32;;;;;;;15.43;9.45;;;;;;;;;;5016016;28;20064;-70
2023/08/14 03:50:57;;;;;;;17.80;11.32;;;14.90;99.90;;;;;;5007940;28;20451;-70
2023/08/14 03:53:23;;;;;;;19.10;11.23;;;;;;;;;;5003682;28;20049;-71
2023/08/14 03:55:49;;;;;;;16.08;9.07;;;;;;;;;;5003430;28;20045;-70
2023/08/14 03:58:15;;;;;;;19.70;10.88;;;;;;;;;;5004915;28;20046;-72
2023/08/14 04:00:41;;;;;;;19.95;11.55;;;;;;;;;;5009968;28;20183;-70
2023/08/14 04:03:07;;;;;;;15.77;10.82;;;;;;;;;;5010021;28;20115;-74
2023/08/14 04:05:39;;;;;;;15.40;9.32;;;14.90;99.90;;;;;;5012988;28;20550;-70
2023/08/14 04:08:05;;;;;;;18.67;11.05;;;;;;;;;;5029136;28;20088;-72
2023/08/14 04:10:32;;;;;;;17.45;11.35;;;;;;;;;;5023184;28;20122;-70
2023/08/14 04:12:57;;;;;;;18.00;9.93;;;;;;;;;;5024329;28;20037;-70
2023/08/14 04:15:23;;;;;;;18.45;10.25;;;14.80;99.90;;;;;;5011970;28;20103;-70
2023/08/14 04:17:49;;;;;;;15.70;9.90;;;;;;;;;;5014541;28;20052;-70
2023/08/14 04:20:15;;;;;;;14.65;10.70;;;;;;;;;;5023599;28;20704;-70
2023/08/14 04:22:41;;;;;;;16.05;10.43;;;14.80;99.90;;;;;;5014149;28;20053;-71
2023/08/14 04:25:07;;;;;;;17.85;9.68;;;14.70;99.90;;;;;;5019717;28;20522;-70
2023/08/14 04:27:37;;;;;;;17.27;10.85;;;14.90;99.90;;;;;;5017753;28;20045;-70
2023/08/14 04:30:04;;;;;;;14.18;10.57;;;14.80;99.90;;;;;;5026523;28;20093;-70
2023/08/14 04:32:30;;;;;;;15.88;10.48;;;;;;;;;;4998894;28;20144;-72
2023/08/14 04:34:56;;;;;;;21.80;11.35;;;;;;;;;;4991228;28;20121;-71
2023/08/14 04:37:22;;;;;;;15.98;10.32;;;;;;;;;;5000941;28;20491;-70
2023/08/14 04:39:47;;;;;;;16.00;9.73;;;15.00;99.90;;;;;;4999583;28;20056;-70
2023/08/14 04:42:13;;;;;;;17.48;10.00;;;;;;;;;;5021865;28;20079;-70
2023/08/14 04:44:39;;;;;;;16.00;10.52;;;;;;;;;;5025251;28;20045;-70
2023/08/14 04:47:05;;;;;;;15.35;10.38;;;;;;;;;;5026337;28;20492;-72
2023/08/14 04:49:31;;;;;;;15.93;10.57;;;;;;;;;;5010208;28;20049;-70
2023/08/14 04:51:57;;;;;;;14.32;10.13;;;;;;;;;;5002362;28;20046;-70
2023/08/14 04:54:23;;;;;;;19.25;11.70;;;;;;;;;;5006887;28;20046;-70
2023/08/14 04:56:49;;;;;;;17.48;11.00;;;15.20;99.90;;;;;;5025690;28;20099;-70
2023/08/14 04:59:15;;;;;;;17.65;10.57;;;15.00;99.90;;;;;;5017630;28;20048;-70
2023/08/14 05:01:41;;;;;;;17.42;11.10;;;;;;;;;;5018641;28;20788;-72
2023/08/14 05:04:07;;;;;;;14.98;10.02;;;;;;;;;;5026379;28;20863;-72
2023/08/14 05:06:33;;;;;;;13.32;10.15;;;;;;;;;;5029054;28;20057;-69
2023/08/14 05:08:58;;;;;;;17.13;10.27;;;15.00;99.90;;;;;;5033648;28;20041;-70
2023/08/14 05:11:24;;;;;;;17.45;10.93;;;15.00;99.90;;;;;;4994246;28;20041;-70
2023/08/14 05:13:50;;;;;;;15.00;11.63;;;;;;;;;;5031699;28;20037;-71
2023/08/14 05:16:16;;;;;;;23.13;11.95;;;;;;;;;;5020902;28;20092;-71
2023/08/14 05:18:42;;;;;;;19.77;11.93;;;;;;;;;;5021645;28;20049;-72
2023/08/14 05:21:08;;;;;;;17.52;11.63;;;;;;;;;;5027191;28;20041;-71
2023/08/14 05:23:33;;;;;;;20.52;12.38;;;15.10;99.90;;;;;;5018488;28;20055;-70
2023/08/14 05:25:59;;;;;;;19.92;12.32;;;;;;;;;;5032072;28;20037;-70
2023/08/14 05:28:25;;;;;;;17.88;10.93;;;;;;;;;;4991079;28;20053;-71
2023/08/14 05:30:51;;;;;;;18.98;11.75;;;;;;;;;;5029239;28;20088;-71
2023/08/14 05:33:17;;;;;;;22.88;12.45;;;;;;;;;;4997462;28;20877;-72
2023/08/14 05:35:43;;;;;;;18.98;11.95;;;;;;;;;;5030991;28;20091;-71
2023/08/14 05:38:09;;;;;;;20.48;12.43;;;15.50;99.90;;;;;;5012571;28;20046;-70
2023/08/14 05:40:35;;;;;;;16.98;11.45;;;;;;;;;;5029389;28;20125;-71
2023/08/14 05:43:03;;;;;;;20.90;12.35;;;15.70;99.90;;;;;;5025291;28;20398;-72
2023/08/14 05:45:37;;;;;;;23.45;14.32;;;15.50;99.90;;;;;;5025114;28;20506;-70
2023/08/14 05:48:04;;;;;;;20.35;12.55;;;15.50;99.90;;;;;;5031370;28;20060;-73
2023/08/14 05:50:31;;;;;;;17.17;11.60;;;15.50;99.90;;;;;;5015028;28;20048;-70
2023/08/14 05:52:59;;;;;;;18.00;11.77;;;;;;;;;;5026469;28;20045;-70
2023/08/14 05:55:25;;;;;;;19.42;12.60;;;15.70;99.90;;;;;;5026930;28;20103;-70
2023/08/14 05:57:51;;;;;;;19.17;12.85;;;;;;;;;;5017247;28;20060;-71
2023/08/14 06:00:17;;;;;;;19.83;12.48;;;15.90;99.90;;;;;;5031551;28;20128;-70
2023/08/14 06:02:44;;;;;;;16.70;11.40;;;;;;;;;;4993647;28;20048;-70
2023/08/14 06:05:10;;;;;;;21.83;11.13;;;16.20;99.90;;;;;;4995339;28;20054;-70
2023/08/14 06:07:36;;;;;;;19.63;10.40;;;;;;;;;;4991025;28;20065;-71
2023/08/14 06:10:04;;;;;;;14.23;9.85;;;16.40;99.90;;;;;;5004431;28;20038;-70
2023/08/14 06:12:30;;;;;;;14.48;10.60;;;16.50;99.90;;;;;;4984380;28;20073;-69
2023/08/14 06:14:56;;;;;;;17.63;9.90;;;;;;;;;;5020583;28;20143;-70
2023/08/14 06:17:21;;;;;;;15.85;10.18;;;16.60;99.90;;;;;;5007451;28;20042;-70
2023/08/14 06:19:47;;;;;;;15.38;10.18;;;;;;;;;;5017905;28;20121;-70
2023/08/14 06:22:13;;;;;;;18.92;10.32;;;;;;;;;;5003164;28;20049;-72
2023/08/14 06:24:40;;;;;;;16.85;10.13;;;;;;;;;;5012005;28;20044;-70
2023/08/14 06:27:06;;;;;;;15.95;10.45;;;;;;;;;;4993010;28;20049;-71
2023/08/14 06:29:31;;;;;;;16.92;10.70;;;16.70;99.90;;;;;;5012215;28;20056;-71
2023/08/14 06:31:57;;;;;;;16.13;11.45;;;16.60;99.90;;;;;;4985630;28;20046;-71
2023/08/14 06:34:24;;;;;;;18.10;11.15;;;;;;;;;;5018087;28;20041;-72
2023/08/14 06:36:49;;;;;;;17.45;10.30;;;;;;;;;;5018971;28;20042;-72
2023/08/14 06:39:15;;;;;;;16.50;9.80;;;;;;;;;;4994745;28;20038;-71
2023/08/14 06:41:41;;;;;;;21.90;10.80;;;;;;;;;;5007354;28;20084;-71
2023/08/14 06:44:08;;;;;;;20.55;10.10;;;16.80;99.90;;;;;;5013597;28;20110;-71
2023/08/14 06:46:34;;;;;;;14.40;9.77;;;16.80;99.90;;;;;;5001427;28;20058;-71
2023/08/14 06:49:00;;;;;;;17.58;9.80;;;16.90;99.90;;;;;;5006100;28;20046;-71
2023/08/14 06:51:25;;;;;;;13.73;10.75;;;17.00;99.90;;;;;;5014204;28;20403;-72
2023/08/14 06:53:51;;;;;;;16.13;9.35;;;;;;;;;;5009836;28;20045;-71
2023/08/14 06:56:17;;;;;;;14.55;9.27;;;17.80;99.90;;;;;;5012491;28;20117;-71
2023/08/14 06:58:42;;;;;;;13.15;8.57;;;18.40;99.90;;;;;;4989048;28;20052;-71
2023/08/14 07:01:09;;;;;;;13.90;7.25;;;;;;;;;;5003979;28;20095;-72
2023/08/14 07:03:35;;;;;;;12.60;6.63;;;;;;;;;;5004285;28;20582;-71
2023/08/14 07:06:01;;;;;;;9.98;7.00;;;19.00;99.90;;;;;;4995090;28;20046;-71
2023/08/14 07:08:27;;;;;;;10.75;6.55;;;19.00;99.90;;;;;;4994854;28;20199;-71
2023/08/14 07:10:53;;;;;;;10.60;7.25;;;18.90;99.90;;;;;;4994220;28;20038;-72
2023/08/14 07:13:19;;;;;;;15.73;7.13;;;;;;;;;;5016982;28;20055;-72
2023/08/14 07:15:47;;;;;;;9.85;6.57;;;18.80;99.90;;;;;;5017034;28;20132;-71
2023/08/14 07:18:18;;;;;;;14.18;7.03;;;18.70;99.90;;;;;;5016444;28;20392;-71
2023/08/14 07:20:45;;;;;;;14.55;7.18;;;;;;;;;;4986908;28;20064;-72
2023/08/14 07:23:12;;;;;;;11.85;7.03;;;;;;;;;;4990779;28;20747;-71
2023/08/14 07:25:38;;;;;;;13.98;7.63;;;18.50;99.90;;;;;;5010239;28;20127;-71
2023/08/14 07:28:04;;;;;;;12.85;7.03;;;;;;;;;;5013630;28;20128;-71
2023/08/14 07:30:30;;;;;;;13.77;7.63;;;18.50;99.90;;;;;;5013300;28;20076;-71
2023/08/14 07:32:56;;;;;;;14.60;6.75;;;18.40;99.90;;;;;;5000790;28;20447;-71
2023/08/14 07:35:21;;;;;;;11.55;7.00;;;18.60;99.90;;;;;;5009834;28;20537;-71
2023/08/14 07:37:47;;;;;;;12.55;6.88;;;18.50;99.90;;;;;;5022326;28;20074;-71
2023/08/14 07:40:13;;;;;;;10.95;6.95;;;;;;;;;;4986457;28;20053;-71
2023/08/14 07:42:39;;;;;;;12.13;7.32;;;18.50;99.90;;;;;;5001832;28;20038;-71
2023/08/14 07:45:04;;;;;;;13.90;7.68;;;18.60;99.90;;;;;;5000596;28;20053;-72
2023/08/14 07:47:30;;;;;;;12.77;7.78;;;18.50;99.90;;;;;;5015959;28;20125;-71
2023/08/14 07:49:56;;;;;;;10.25;6.75;;;18.50;99.90;;;;;;4989353;28;20044;-73
2023/08/14 07:52:22;;;;;;;14.05;7.30;;;;;;;;;;4986614;28;20089;-71
2023/08/14 07:54:47;;;;;;;15.30;7.72;;;18.60;99.90;;;;;;5016566;28;20127;-71
2023/08/14 07:57:13;;;;;;;14.40;7.53;;;;;;;;;;4997336;28;20045;-72
2023/08/14 07:59:38;;;;;;;15.40;7.25;;;18.60;99.90;;;;;;5016018;28;20088;-71
2023/08/14 08:02:05;;;;;;;16.63;6.95;;;18.70;99.90;;;;;;5018994;28;20041;-71
2023/08/14 08:04:36;;;;;;;11.90;6.85;;;18.70;99.90;;;;;;5000301;28;20042;-72
2023/08/14 08:07:03;;;;;;;20.25;7.45;;;18.90;99.90;;;;;;5016736;28;20053;-71
2023/08/14 08:09:28;;;;;;;13.05;7.47;;;;;;;;;;5005503;28;20045;-71
2023/08/14 08:11:54;;;;;;;11.98;7.25;;;19.10;99.90;;;;;;5016716;28;20106;-71
2023/08/14 08:14:20;;;;;;;13.68;6.80;;;;;;;;;;5006100;28;20037;-72
2023/08/14 08:16:47;;;;;;;10.90;7.13;;;19.30;99.90;;;;;;5006264;28;20128;-71
2023/08/14 08:19:13;;;;;;;11.98;6.78;;;19.50;99.90;;;;;;5012331;28;20041;-71
2023/08/14 08:21:38;;;;;;;15.02;6.95;;;19.50;99.90;;;;;;5025395;28;20068;-71
2023/08/14 08:24:05;;;;;;;11.55;6.32;;;19.60;99.90;;;;;;5013093;28;20053;-71
2023/08/14 08:26:30;;;;;;;11.52;6.90;;;19.70;99.90;;;;;;5024514;28;20488;-71
2023/08/14 08:28:56;;;;;;;12.60;6.53;;;19.70;99.90;;;;;;5013646;28;20052;-71
2023/08/14 08:31:22;;;;;;;11.18;5.53;;;19.80;99.90;;;;;;5010993;28;20033;-71
2023/08/14 08:33:48;;;;;;;10.75;4.90;;;20.00;99.90;;;;;;5012816;28;20094;-71
2023/08/14 08:36:17;;;;;;;16.42;5.47;;;20.00;99.90;;;;;;5010127;28;20041;-71
2023/08/14 08:38:45;;;;;;;8.88;4.85;;;20.10;99.90;;;;;;5025419;28;20121;-71
2023/08/14 08:41:24;;;;;;;7.55;4.30;;;20.10;99.90;;;;;;5025557;28;20758;-71
2023/08/14 08:43:58;;;;;;;8.82;3.05;;;20.00;99.90;;;;;;5025538;28;20099;-71
2023/08/14 08:46:24;;;;;;;6.85;3.15;;;20.10;99.90;;;;;;5024039;28;20033;-71
2023/08/14 08:48:51;;;;;;;5.25;2.50;;;19.90;99.90;;;;;;5012305;28;20049;-71
2023/08/14 08:51:17;;;;;;;6.75;2.63;;;19.90;99.90;;;;;;5025383;28;20038;-71
2023/08/14 08:53:43;;;;;;;5.30;3.10;;;19.90;99.90;;;;;;5025091;28;20048;-71
2023/08/14 08:56:10;;;;;;;12.55;2.80;;;20.10;99.90;;;;;;5024953;28;20480;-71
2023/08/14 08:58:35;;;;;;;6.72;2.85;;;20.10;99.90;;;;;;5025287;28;20500;-72
2023/08/14 09:01:01;;;;;;;8.18;3.60;;;20.20;99.90;;;;;;5025244;28;20044;-71
2023/08/14 09:03:27;;;;;;;8.75;3.85;;;20.20;99.90;;;;;;4998160;28;20547;-71
2023/08/14 09:05:53;;;;;;;8.98;3.92;;;20.40;99.90;;;;;;5001322;28;20049;-71
2023/08/14 09:08:19;;;;;;;7.25;3.53;;;20.50;99.90;;;;;;5030122;28;20041;-71
2023/08/14 09:10:44;;;;;;;11.43;2.90;;;20.40;99.90;;;;;;5014982;28;20568;-71
2023/08/14 09:13:10;;;;;;;7.50;1.73;;;20.80;99.90;;;;;;5030958;28;20046;-71
2023/08/14 09:15:41;;;;;;;10.07;1.48;;;20.90;99.90;;;;;;5031348;28;20910;-71
2023/08/14 09:18:06;;;;;;;6.55;1.85;;;21.10;99.90;;;;;;5027256;28;20052;-71
2023/08/14 09:20:32;;;;;;;2.78;1.00;;;21.10;99.90;;;;;;5032074;28;20041;-72
2023/08/14 09:22:59;;;;;;;4.95;1.73;;;21.10;99.90;;;;;;5010947;28;20053;-72
2023/08/14 09:25:25;;;;;;;8.23;2.08;;;21.30;99.90;;;;;;5015153;28;20053;-71
2023/08/14 09:27:54;;;;;;;4.78;1.42;;;21.30;99.90;;;;;;5011205;28;20500;-72
2023/08/14 09:30:23;;;;;;;3.80;1.25;;;21.40;99.90;;;;;;5011861;28;20393;-71
2023/08/14 09:32:49;;;;;;;4.50;1.23;;;21.20;99.90;;;;;;5016193;28;20191;-71
2023/08/14 09:35:15;;;;;;;3.10;0.98;;;21.70;99.90;;;;;;5026414;28;20048;-72
2023/08/14 09:37:40;;;;;;;3.63;1.10;;;21.60;99.90;;;;;;5015789;28;20040;-71
2023/08/14 09:40:13;;;;;;;4.38;0.88;;;21.50;99.90;;;;;;5010679;28;20045;-71
2023/08/14 09:42:39;;;;;;;4.18;1.08;;;21.70;99.90;;;;;;5039141;28;20372;-71
2023/08/14 09:45:06;;;;;;;3.00;1.00;;;21.80;99.90;;;;;;5034248;28;20102;-71
2023/08/14 09:47:32;;;;;;;3.38;0.95;;;21.60;99.90;;;;;;5018637;28;20084;-72
2023/08/14 09:49:58;;;;;;;6.00;1.75;;;22.90;99.90;;;;;;5035777;28;20041;-71
2023/08/14 09:52:24;;;;;;;4.28;1.05;;;21.70;99.90;;;;;;5035570;28;20060;-71
2023/08/14 09:54:50;;;;;;;4.60;1.05;;;21.50;99.90;;;;;;5040224;28;20090;-71
2023/08/14 09:57:22;;;;;;;5.32;1.27;;;22.10;99.90;;;;;;5016448;28;20792;-71
2023/08/14 09:59:47;;;;;;;5.25;1.20;;;21.90;99.90;;;;;;5014832;28;20053;-71
2023/08/14 10:02:15;;;;;;;5.15;1.33;;;22.10;99.90;;;;;;5036649;28;20037;-72
2023/08/14 10:04:45;;;;;;;5.85;1.35;;;21.80;99.90;;;;;;5034829;28;20049;-71
2023/08/14 10:07:12;;;;;;;3.15;1.05;;;23.40;99.90;;;;;;5014802;28;20041;-71
2023/08/14 10:09:43;;;;;;;6.07;1.20;;;23.60;99.90;;;;;;5017374;28;20037;-71
2023/08/14 10:12:12;;;;;;;4.72;1.25;;;22.40;99.90;;;;;;5027792;28;20029;-71
2023/08/14 10:14:41;;;;;;;5.10;1.35;;;22.50;99.90;;;;;;5034535;28;20137;-72
2023/08/14 10:17:14;;;;;;;3.90;1.20;;;22.40;99.90;;;;;;5017875;28;20056;-71
2023/08/14 10:19:41;;;;;;;4.40;1.17;;;22.50;99.90;;;;;;5017942;28;20099;-71
2023/08/14 10:22:08;;;;;;;3.90;1.10;;;20.70;99.90;;;;;;5027594;28;20512;-73
2023/08/14 10:24:38;;;;;;;4.90;0.90;;;22.30;99.90;;;;;;5031168;28;20045;-71
2023/08/14 10:27:05;;;;;;;2.85;1.05;;;23.80;99.90;;;;;;5029358;28;20048;-71
2023/08/14 10:29:34;;;;;;;4.82;0.98;;;22.10;99.90;;;;;;5029472;28;20048;-71
2023/08/14 10:32:00;;;;;;;2.25;0.82;;;22.20;99.90;;;;;;5027853;28;20041;-72
2023/08/14 10:34:30;;;;;;;2.75;0.80;;;22.50;99.90;;;;;;5038026;28;20037;-71
2023/08/14 10:36:55;;;;;;;3.85;1.10;;;23.60;99.90;;;;;;5013395;28;20050;-71
2023/08/14 10:39:35;;;;;;;7.78;1.30;;;22.60;99.90;;;;;;5013897;28;20041;-72
2023/08/14 10:42:05;;;;;;;3.33;0.82;;;22.40;99.90;;;;;;5038780;28;20041;-72
2023/08/14 10:44:36;;;;;;;6.97;1.33;;;22.80;99.90;;;;;;5032255;28;20049;-71
2023/08/14 10:47:06;;;;;;;3.22;1.05;;;22.80;99.90;;;;;;5026952;28;20532;-72
2023/08/14 10:49:46;;;;;;;4.05;1.23;;;22.70;99.90;;;;;;5016420;28;20712;-71
2023/08/14 10:52:16;;;;;;;4.50;1.42;;;22.60;99.90;;;;;;5022095;28;20125;-71
2023/08/14 10:54:48;;;;;;;4.15;1.60;;;22.70;99.90;;;;;;5015089;28;20049;-71
2023/08/14 10:57:14;;;;;;;5.68;1.70;;;22.60;99.90;;;;;;5026386;28;20065;-71
2023/08/14 10:59:43;;;;;;;5.55;1.55;;;22.60;99.90;;;;;;5018001;28;20083;-71
2023/08/14 11:02:09;;;;;;;6.60;1.38;;;22.30;99.90;;;;;;5028780;28;20045;-71
2023/08/14 11:04:39;;;;;;;5.30;1.27;;;22.50;99.90;;;;;;5030261;28;20127;-72
2023/08/14 11:07:11;;;;;;;4.18;1.85;;;22.80;99.90;;;;;;5014049;28;20557;-72
2023/08/14 11:09:38;;;;;;;5.45;1.42;;;22.40;99.90;;;;;;5015558;28;20053;-71
2023/08/14 11:12:09;;;;;;;4.93;1.42;;;24.10;99.90;;;;;;5018021;28;20052;-71
2023/08/14 11:14:39;;;;;;;5.78;1.73;;;22.50;99.90;;;;;;5016939;28;20087;-71
2023/08/14 11:17:05;;;;;;;5.50;1.42;;;22.40;99.90;;;;;;5010305;28;20507;-72
2023/08/14 11:19:34;;;;;;;3.47;1.05;;;22.50;99.90;;;;;;5017945;28;20045;-72
2023/08/14 11:21:59;;;;;;;4.03;0.73;;;22.50;99.90;;;;;;5026704;28;20054;-71
2023/08/14 11:24:25;;;;;;;5.60;1.13;;;22.70;99.90;;;;;;5031097;28;20043;-71
2023/08/14 11:26:52;;;;;;;3.55;0.93;;;22.70;99.90;;;;;;5027516;28;20053;-72
2023/08/14 11:29:17;;;;;;;5.80;1.20;;;22.50;99.90;;;;;;5031104;28;20060;-71
2023/08/14 11:31:44;;;;;;;4.22;0.95;;;23.00;99.90;;;;;;5013927;28;20042;-72
2023/08/14 11:34:10;;;;;;;3.67;1.42;;;23.10;99.90;;;;;;5030970;28;20029;-72
2023/08/14 11:36:51;;;;;;;6.07;0.85;;;23.10;99.90;;;;;;5030300;28;20041;-71
2023/08/14 11:39:16;;;;;;;3.88;0.82;;;23.00;99.90;;;;;;5026797;28;20037;-71
2023/08/14 11:41:42;;;;;;;5.00;1.02;;;24.00;99.90;;;;;;5029098;28;20385;-71
2023/08/14 11:44:07;;;;;;;7.22;1.15;;;22.80;99.90;;;;;;5027002;28;20128;-71
2023/08/14 11:46:33;;;;;;;2.97;0.95;;;23.40;99.90;;;;;;5016799;28;20224;-72
2023/08/14 11:48:59;;;;;;;9.30;1.20;;;23.20;99.90;;;;;;5027123;28;20129;-71
2023/08/14 11:51:25;;;;;;;5.57;1.20;;;23.50;99.90;;;;;;5027859;28;20883;-72
2023/08/14 11:53:50;;;;;;;3.80;1.02;;;23.50;99.90;;;;;;5032141;28;20033;-71
2023/08/14 11:56:17;;;;;;;6.85;1.17;;;23.40;99.90;;;;;;5016998;28;20491;-72
2023/08/14 11:58:44;;;;;;;3.30;0.90;;;23.20;99.90;;;;;;5014018;28;20041;-71
2023/08/14 12:01:10;;;;;;;6.55;1.05;;;23.20;99.90;;;;;;5013921;28;20420;-72
2023/08/14 12:03:36;;;;;;;4.90;0.90;;;23.60;99.90;;;;;;5020277;28;20114;-71
2023/08/14 12:06:03;;;;;;;7.43;1.20;;;23.40;99.90;;;;;;5034739;28;20036;-72
2023/08/14 12:08:30;;;;;;;6.00;1.15;;;23.40;99.90;;;;;;5025189;28;20045;-72
2023/08/14 12:10:57;;;;;;;3.92;0.90;;;23.10;99.90;;;;;;5029459;28;20471;-71
2023/08/14 12:13:22;;;;;;;2.67;0.82;;;22.90;99.90;;;;;;5015082;28;20045;-71
2023/08/14 12:15:48;;;;;;;3.50;0.90;;;23.00;99.90;;;;;;5016695;28;20077;-72
2023/08/14 12:18:21;;;;;;;4.97;1.15;;;23.00;99.90;;;;;;5027929;28;20041;-72
2023/08/14 12:21:10;;;;;;;5.82;2.40;;;23.10;99.90;;;;;;5025595;28;20072;-71
2023/08/14 12:23:36;;;;;;;3.80;1.27;;;24.20;99.90;;;;;;5009727;28;20049;-71
2023/08/14 12:26:01;;;;;;;3.67;1.17;;;23.20;99.90;;;;;;5012022;28;20107;-71
2023/08/14 12:28:27;;;;;;;6.18;1.27;;;23.10;99.90;;;;;;5030260;28;20041;-72
2023/08/14 12:30:53;;;;;;;5.20;1.20;;;24.70;99.90;;;;;;5032021;28;20805;-71
2023/08/14 12:33:19;;;;;;;4.30;0.90;;;23.00;99.90;;;;;;4998088;28;20087;-72
2023/08/14 12:35:44;;;;;;;5.18;1.30;;;24.70;99.90;;;;;;5011568;28;20575;-72
2023/08/14 12:38:10;;;;;;;5.38;1.52;;;23.00;99.90;;;;;;5016462;28;20470;-72
2023/08/14 12:40:35;;;;;;;5.00;1.60;;;23.20;99.90;;;;;;5025260;28;20579;-72
2023/08/14 12:43:01;;;;;;;6.82;1.83;;;23.00;99.90;;;;;;5012496;28;20535;-71
2023/08/14 12:45:27;;;;;;;8.32;2.28;;;23.20;99.90;;;;;;5025492;28;20033;-71
2023/08/14 12:47:53;;;;;;;4.90;1.48;;;23.10;99.90;;;;;;5009377;28;20049;-71
2023/08/14 12:50:18;;;;;;;7.50;2.72;;;23.00;99.90;;;;;;5025859;28;20049;-71
2023/08/14 12:52:44;;;;;;;9.60;1.92;;;23.00;99.90;;;;;;5031607;28;20038;-71
2023/08/14 12:55:09;;;;;;;5.68;1.38;;;22.80;99.90;;;;;;5014118;28;20099;-72
2023/08/14 12:57:35;;;;;;;5.85;1.50;;;23.50;99.90;;;;;;5014817;28;20053;-71
2023/08/14 13:00:01;;;;;;;4.82;1.17;;;23.30;99.90;;;;;;5031463;28;20049;-71
2023/08/14 13:02:27;;;;;;;6.75;1.70;;;25.10;99.90;;;;;;5021704;28;20042;-71
2023/08/14 13:04:54;;;;;;;6.60;1.60;;;23.40;99.90;;;;;;5010356;28;20060;-72
2023/08/14 13:07:20;;;;;;;4.65;1.40;;;23.80;99.90;;;;;;5026733;28;20826;-72
2023/08/14 13:09:45;;;;;;;6.78;1.98;;;23.40;99.90;;;;;;5028762;28;20047;-72
2023/08/14 13:12:11;;;;;;;9.75;1.83;;;23.50;99.90;;;;;;5036977;28;20835;-72